• Join FlightAware (Why Join?)
  • Login
  • US Flag 
08:46AM EDT


 

Airport Tracker/Info


-or-


 

Live Flight TrackerFlight Track Log ✈ N544GA ✈ 08-Jul-2013 ✈ KFRG - KEYE

Flight Track Log - Related Links

Times and Time Zones

All times are in EDT time to prevent confusion due to time zone crossing. See the N544GA flight status page for this flight to view local times or setup timezone preferences in your user account.

Time Position Orientation Groundspeed Altitude Reporting Facility
EDT Latitude Longitude Course Direction KTS MPH feet Rate Location/Type
04:57PM 40.7000 -73.4333 229° Southwest 156 180 1,900  Level New York TRACON
04:58PM 40.6667 -73.4833 229° Southwest 192 221 3,100 1,320 Climbing New York TRACON
04:59PM 40.6500 -73.5500 252° West 196 226 4,500 1,500 Climbing New York TRACON
05:00PM 40.6500 -73.6333 270° West 197 227 6,100 1,440 Climbing New York TRACON
05:01PM 40.6333 -73.7000 252° West 188 216 7,600 1,440 Climbing New York TRACON
05:02PM 40.6167 -73.7667 252° West 210 242 9,000 1,560 Climbing New York TRACON
05:03PM 40.6000 -73.8500 255° West 190 219 10,800 1,020 Climbing New York TRACON
05:04PM 40.5833 -73.9167 252° West 231 266 11,100 120 Climbing New York TRACON
05:05PM 40.5167 -73.9833 217° Southwest 260 299 11,100  Level New York TRACON
05:06PM 40.4833 -74.0667 242° Southwest 261 300 11,100 120 Level New York TRACON
05:07PM 40.4667 -74.1500 255° West 259 298 11,400 300 Climbing New York TRACON
05:08PM 40.4333 -74.2500 246° West 256 295 11,800 840 Climbing New York TRACON
05:09PM 40.4167 -74.3167 252° West 233 268 13,100 1,200 Climbing New York TRACON
05:10PM 40.4000 -74.4000 255° West 223 257 14,200 300 Climbing New York TRACON
05:12PM 40.3739 -74.5497 257° West 244 281 14,100 -60 Descending New York Center
05:13PM 40.3917 -74.6458 284° West 262 302 14,100 960 Level New York Center
05:14PM 40.4136 -74.7425 287° West 261 300 16,100 1,680 Climbing New York Center
05:15PM 40.4297 -74.8172 286° West 238 274 17,500 1,200 Climbing New York Center
05:16PM 40.4414 -74.8997 281° West 228 262 18,500 960 Climbing New York Center
05:17PM 40.4517 -74.9658 282° West 221 254 19,400 780 Climbing New York Center
05:18PM 40.4614 -75.0456 279° West 221 254 20,100 240 Climbing New York Center
05:19PM 40.4725 -75.1333 279° West 242 278 20,000  Descending New York Center
05:20PM 40.4892 -75.2492 281° West 271 312 20,100 420 Climbing New York Center
05:21PM 40.4836 -75.3414 266° West 271 312 20,900 420 Climbing New York Center
05:22PM 40.4675 -75.4333 257° West 271 312 21,000  Climbing New York Center
05:23PM 40.4428 -75.5269 251° West 271 312 21,000 180 Level New York Center
05:24PM 40.4161 -75.6178 249° West 276 318 21,400 540 Climbing New York Center
05:25PM 40.3939 -75.7064 252° West 281 323 22,200 660 Climbing New York Center
05:26PM 40.3714 -75.7919 251° West 262 302 22,800 600 Climbing New York Center
05:27PM 40.3492 -75.8747 251° West 254 292 23,400 480 Climbing New York Center
05:28PM 40.3208 -75.9514 244° Southwest 254 292 23,800 300 Climbing New York Center
05:29PM 40.2983 -76.0342 250° West 249 287 24,100 120 Climbing New York Center
05:30PM 40.2756 -76.1250 252° West 249 287 24,100  Level New York Center
05:31PM 40.2506 -76.2156 250° West 259 298 24,100  Level New York Center
05:32PM 40.2256 -76.3061 250° West 266 306 24,100  Level New York Center
05:33PM 40.2000 -76.4019 251° West 271 312 24,100  Level New York Center
05:34PM 40.1725 -76.5003 250° West 282 325 24,100  Level New York Center
05:35PM 40.1464 -76.6039 252° West 282 325 24,100  Level New York Center
05:36PM 40.1189 -76.6967 249° West 282 325 24,100  Level New York Center
05:37PM 40.0953 -76.7950 253° West 287 330 24,100 -60 Level New York Center
05:38PM 40.0817 -76.8944 260° West 282 325 24,000 -60 Descending New York Center
05:40PM 40.0647 -77.0564 262° West 264 304 24,000  Level Cleveland Center
05:41PM 40.0553 -77.1572 263° West 269 310 24,100  Climbing Cleveland Center
05:42PM 40.0436 -77.2553 261° West 280 322 24,100  Level Cleveland Center
05:43PM 40.0339 -77.3536 263° West 280 322 24,100  Level Cleveland Center
05:44PM 40.0242 -77.4544 263° West 280 322 24,100  Level Cleveland Center
05:45PM 40.0106 -77.5661 261° West 280 322 24,100  Level Cleveland Center
05:46PM 40.0006 -77.6642 262° West 280 322 24,100 -60 Level Cleveland Center
05:47PM 39.9906 -77.7622 262° West 280 322 24,000 -60 Descending Cleveland Center
05:48PM 39.9803 -77.8600 262° West 280 322 24,000  Level Cleveland Center
05:49PM 39.9681 -77.9608 261° West 280 322 24,100  Climbing Cleveland Center
05:50PM 39.9725 -78.0556 274° West 274 315 24,100  Level Cleveland Center
05:51PM 39.9767 -78.1528 273° West 274 315 24,100  Level Cleveland Center
05:52PM 39.9786 -78.2475 272° West 269 310 24,100  Level Cleveland Center
05:53PM 39.9806 -78.3478 271° West 269 310 24,100 -60 Level Cleveland Center
05:54PM 39.9825 -78.4425 272° West 269 310 24,000 -60 Descending Cleveland Center
05:55PM 39.9864 -78.5372 273° West 269 310 24,000  Level Cleveland Center
05:56PM 39.9881 -78.6375 271° West 274 315 24,000  Level Cleveland Center
05:57PM 39.9875 -78.7350 270° West 274 315 24,100  Climbing Cleveland Center
05:58PM 39.9911 -78.8297 273° West 274 315 24,100  Level Cleveland Center
05:59PM 39.9928 -78.9300 271° West 274 315 24,100 -60 Level Cleveland Center
06:00PM 39.9958 -79.0167 273° West 274 315 24,000  Descending Cleveland Center
06:01PM 39.9994 -79.1142 273° West 274 315 24,100  Climbing Cleveland Center
06:02PM 40.0006 -79.2117 271° West 274 315 24,100 -60 Level Cleveland Center
06:03PM 40.0017 -79.3147 271° West 274 315 24,000 -60 Descending Cleveland Center
06:04PM 40.0047 -79.4094 272° West 274 315 24,000  Level Cleveland Center
06:05PM 40.0058 -79.5044 271° West 274 315 24,000  Level Cleveland Center
06:06PM 40.0067 -79.5992 271° West 269 310 24,100  Climbing Cleveland Center
06:07PM 40.0094 -79.6942 272° West 269 310 24,100 -60 Level Cleveland Center
06:08PM 40.0103 -79.7917 271° West 269 310 24,000  Descending Cleveland Center
06:09PM 40.0131 -79.8892 272° West 269 310 24,100  Climbing Cleveland Center
06:10PM 40.0136 -79.9867 270° West 269 310 24,000  Descending Cleveland Center
06:11PM 40.0139 -80.0842 270° West 269 310 24,100  Climbing Cleveland Center
06:12PM 40.0144 -80.1792 270° West 269 310 24,100  Level Cleveland Center
06:13PM 40.0167 -80.2850 272° West 269 310 24,100 -60 Level Cleveland Center
06:14PM 40.0169 -80.3825 270° West 269 310 24,000  Descending Cleveland Center
06:15PM 40.0150 -80.4800 269° West 269 310 24,100  Climbing Cleveland Center
06:16PM 40.0172 -80.5750 272° West 269 310 24,000 -60 Descending Cleveland Center
06:17PM 40.0172 -80.6697 270° West 269 310 24,000  Level Cleveland Center
06:18PM 40.0169 -80.7675 270° West 269 310 24,100  Climbing Cleveland Center
06:19PM 40.0189 -80.8650 272° West 270 311 24,000 -60 Descending Cleveland Center
06:20PM 40.0164 -80.9572 268° West 270 311 24,000  Level Cleveland Center
06:20PM 40.0133 -81.0225 267° West 259 298 24,000  Level Indianapolis Center
06:21PM 40.0114 -81.1178 269° West 260 299 24,000  Level Indianapolis Center
06:22PM 40.0097 -81.2128 269° West 260 299 24,000  Level Indianapolis Center
06:23PM 40.0056 -81.3253 267° West 262 302 24,000  Level Indianapolis Center
06:24PM 40.0056 -81.4219 270° West 264 304 24,000  Level Indianapolis Center
06:25PM 40.0039 -81.5203 269° West 268 308 24,100  Climbing Indianapolis Center
06:26PM 40.0019 -81.6150 268° West 261 300 24,000 -60 Descending Indianapolis Center
06:28PM 40.0008 -81.7136 269° West 267 307 24,000  Level Indianapolis Center
06:29PM 39.9997 -81.8100 269° West 263 303 24,000  Level Indianapolis Center
06:30PM 39.9975 -81.9050 268° West 261 300 24,000  Level Indianapolis Center
06:31PM 39.9953 -82.0003 268° West 261 300 24,000  Level Indianapolis Center
06:32PM 39.9942 -82.1100 269° West 258 297 24,000  Level Indianapolis Center
06:33PM 39.9906 -82.2044 267° West 258 297 24,000  Level Indianapolis Center
06:34PM 39.9897 -82.2983 269° West 258 297 24,000  Level Indianapolis Center
06:35PM 39.9864 -82.3919 267° West 257 296 24,000  Level Indianapolis Center
06:36PM 39.9850 -82.4867 269° West 258 297 24,000  Level Indianapolis Center
06:37PM 39.9825 -82.5814 268° West 259 298 24,000  Level Indianapolis Center
06:38PM 39.9797 -82.6769 268° West 262 302 24,000  Level Indianapolis Center
06:39PM 39.9775 -82.7736 268° West 264 304 24,000  Level Indianapolis Center
06:40PM 39.9747 -82.8856 268° West 264 304 24,000  Level Indianapolis Center
06:41PM 39.9719 -82.9817 268° West 264 304 24,000  Level Indianapolis Center
06:42PM 39.9689 -83.0769 268° West 262 302 24,000  Level Indianapolis Center
06:43PM 39.9667 -83.1728 268° West 262 302 24,000  Level Indianapolis Center
06:44PM 39.9636 -83.2686 268° West 264 304 24,000  Level Indianapolis Center
06:45PM 39.9614 -83.3647 268° West 264 304 24,000  Level Indianapolis Center
06:46PM 39.9583 -83.4769 268° West 267 307 24,000  Level Indianapolis Center
06:47PM 39.9542 -83.5722 267° West 266 306 24,000  Level Indianapolis Center
06:48PM 39.9503 -83.6661 267° West 261 300 24,000  Level Indianapolis Center
06:49PM 39.9528 -83.7594 272° West 257 296 24,000  Level Indianapolis Center
06:50PM 39.9614 -83.8522 277° West 257 296 24,000  Level Indianapolis Center
06:51PM 39.9697 -83.9617 276° West 257 296 24,000 -180 Level Indianapolis Center
06:53PM 39.9778 -84.0722 275° West  Level FlightAware Approximate
06:53PM 39.9858 -84.1525 275° West 267 307 23,600  Level Indianapolis Center
06:54PM 39.9936 -84.2514 276° West 272 313 23,000 -540 Descending Indianapolis Center
06:55PM 40.0008 -84.3506 275° West 273 314 22,600 -480 Descending Indianapolis Center
06:56PM 40.0094 -84.4517 276° West 277 319 22,100 -360 Descending Indianapolis Center
06:57PM 40.0169 -84.5489 276° West 270 311 21,900 -60 Descending Indianapolis Center
06:59PM 40.0242 -84.6603 275° West 262 302 22,000  Climbing Indianapolis Center
07:00PM 40.0306 -84.7525 275° West 256 295 21,900  Descending Indianapolis Center
07:01PM 40.0375 -84.8453 276° West 255 293 22,000 -180 Climbing Indianapolis Center
07:02PM 40.0442 -84.9375 275° West 257 296 21,600 -900 Descending Indianapolis Center
07:03PM 40.0506 -85.0358 275° West 271 312 20,200 -1,380 Descending Indianapolis Center
07:04PM 40.0589 -85.1397 276° West 285 328 18,800 -1,440 Descending Indianapolis Center
07:05PM 40.0675 -85.2619 275° West 284 327 17,300 -1,320 Descending Indianapolis Center
07:06PM 40.0525 -85.3603 259° West 282 325 16,100 -1,320 Descending Indianapolis Center
07:07PM 40.0267 -85.4558 251° West 280 322 14,600 -1,440 Descending Indianapolis Center
07:08PM 40.0078 -85.5506 255° West 271 312 13,200 -1,440 Descending Indianapolis Center
07:09PM 39.9856 -85.6419 252° West 267 307 11,700 -1,500 Descending Indianapolis Center
07:10PM 39.9650 -85.7322 253° West 262 302 10,200 -1,620 Descending Indianapolis Center
07:11PM 39.9406 -85.8342 253° West 248 285 8,400 -1,620 Descending Indianapolis Center
07:12PM 39.9203 -85.9181 253° West 244 281 7,000 -1,440 Descending Indianapolis Center
07:13PM 39.9014 -85.9992 253° West 240 276 5,500 -1,440 Descending Indianapolis Center
07:14PM 39.8828 -86.0758 252° West 232 267 4,100 -1,380 Descending Indianapolis Center
07:15PM 39.8650 -86.1500 253° West 225 259 2,700 -1,380 Descending Indianapolis Center